Springdale, Montana
Current Conditions -  °F | °C
As of 2:53 PM on Friday 31 Oct 2014 (Local Time) from KLVM Reporting Station
Clear Clear  
Wind Chill: 73°   Ceiling: Unl
Heat Index: 73°   Visibility: 10mi
Dew Point: 25°   Wind: 21mph
Humidity: 17%   Direction: 240°WSW
Pressure: 29.79"   Gusts: 28mph
Location:  45.74°N, 110.22°W
Report Text: KLVM 312053Z AUTO 24018G24KT 10SM CLR 23/M04 A2979 RMK AO2 PK WND 22026/2043 SLP064 T02281039 56033
Loading
Personal Weather Stations






























Interactive Weather Map
Tropical Storm Tracking
New forecast layout! Learn more

10-Day Weather Forecast

Advertisements
Track Severe Weather on mobile